createdAt,value
2018-01-20T00:01:49.658Z,90.30
2018-01-20T00:04:18.786Z,90.09
2018-01-20T00:06:47.163Z,89.97
2018-01-20T00:09:33.451Z,89.70
2018-01-20T00:12:03.706Z,89.29
2018-01-20T00:14:32.081Z,89.35
2018-01-20T00:17:00.417Z,88.70
2018-01-20T00:19:28.789Z,88.40
2018-01-20T00:21:57.911Z,88.25
2018-01-20T00:24:26.245Z,88.03
2018-01-20T00:26:55.387Z,87.70
2018-01-20T00:29:23.715Z,87.30
2018-01-20T00:31:52.070Z,87.24
2018-01-20T00:34:20.410Z,87.01
2018-01-20T00:36:48.785Z,86.71
2018-01-20T00:39:17.129Z,86.63
2018-01-20T00:41:46.258Z,86.50
2018-01-20T00:44:14.617Z,86.35
2018-01-20T00:46:43.713Z,86.23
2018-01-20T00:49:12.841Z,86.08
2018-01-20T00:51:41.169Z,85.90
2018-01-20T00:54:10.297Z,85.70
2018-01-20T00:56:38.673Z,85.58
2018-01-20T00:59:07.089Z,85.47
2018-01-20T01:01:35.469Z,85.29
2018-01-20T01:04:04.073Z,85.10
2018-01-20T01:06:32.405Z,85.01
2018-01-20T01:09:00.770Z,84.91
2018-01-20T01:11:29.095Z,84.82
2018-01-20T01:13:57.467Z,84.73
2018-01-20T01:16:25.799Z,84.70
2018-01-20T01:18:54.167Z,84.70
2018-01-20T01:21:23.303Z,84.63
2018-01-20T01:23:51.609Z,84.68
2018-01-20T01:26:19.969Z,84.56
2018-01-20T01:28:48.321Z,84.71
2018-01-20T01:31:16.663Z,84.39
2018-01-20T01:33:45.065Z,84.19
2018-01-20T01:36:13.406Z,84.17
2018-01-20T01:38:41.728Z,84.01
2018-01-20T01:41:10.096Z,83.81
2018-01-20T01:43:38.429Z,83.70
2018-01-20T01:46:06.806Z,83.65
2018-01-20T01:48:35.158Z,83.69
2018-01-20T01:51:03.529Z,83.74
2018-01-20T01:53:31.901Z,83.55
2018-01-20T01:56:00.285Z,83.51
2018-01-20T01:58:28.621Z,83.62
2018-01-20T02:00:57.716Z,83.66
2018-01-20T02:03:26.856Z,83.75
2018-01-20T02:05:55.225Z,83.69
2018-01-20T02:08:23.609Z,83.80
2018-01-20T02:10:51.969Z,83.84
2018-01-20T02:13:20.305Z,83.53
2018-01-20T02:15:48.677Z,83.50
2018-01-20T02:18:17.012Z,83.53
2018-01-20T02:20:45.353Z,83.55
2018-01-20T02:23:13.789Z,83.48
2018-01-20T02:25:42.126Z,83.58
2018-01-20T02:28:10.456Z,83.66
2018-01-20T02:30:38.839Z,83.58
2018-01-20T02:33:07.169Z,83.46
2018-01-20T02:35:35.652Z,83.36
2018-01-20T02:38:03.988Z,83.38
2018-01-20T02:40:32.312Z,83.40
2018-01-20T02:43:01.456Z,83.39
2018-01-20T02:45:29.782Z,83.52
2018-01-20T02:47:58.513Z,83.46
2018-01-20T02:50:26.881Z,83.41
2018-01-20T02:52:55.212Z,83.41
2018-01-20T02:55:23.557Z,83.31
2018-01-20T02:57:52.686Z,83.28
2018-01-20T03:00:21.020Z,83.40
2018-01-20T03:02:49.450Z,83.35
2018-01-20T03:05:18.526Z,83.19
2018-01-20T03:07:47.653Z,83.19
2018-01-20T03:10:15.982Z,83.04
2018-01-20T03:12:45.118Z,82.96
2018-01-20T03:15:13.509Z,82.94
2018-01-20T03:17:41.876Z,82.83
2018-01-20T03:20:10.208Z,82.80
2018-01-20T03:22:38.640Z,82.82
2018-01-20T03:25:06.982Z,82.85
2018-01-20T03:27:36.080Z,82.98
2018-01-20T03:30:05.204Z,82.89
2018-01-20T03:32:33.544Z,82.86
2018-01-20T03:35:02.688Z,82.88
2018-01-20T03:37:31.016Z,82.79
2018-01-20T03:40:00.168Z,82.85
2018-01-20T03:42:28.533Z,82.91
2018-01-20T03:44:56.897Z,82.80
2018-01-20T03:47:26.275Z,82.58
2018-01-20T03:49:55.422Z,82.53
2018-01-20T03:52:23.777Z,82.86
2018-01-20T03:54:52.092Z,82.94
2018-01-20T03:57:20.483Z,82.87
2018-01-20T03:59:48.824Z,82.88
2018-01-20T04:02:17.188Z,82.86
2018-01-20T04:04:45.513Z,82.81
2018-01-20T04:07:13.932Z,82.67
2018-01-20T04:09:42.280Z,82.76
2018-01-20T04:12:11.423Z,82.84
2018-01-20T04:14:40.556Z,82.86
2018-01-20T04:17:08.939Z,82.90
2018-01-20T04:19:38.011Z,82.88
2018-01-20T04:22:06.375Z,82.98
2018-01-20T04:24:34.703Z,82.99
2018-01-20T04:27:03.843Z,82.92
2018-01-20T04:29:32.175Z,82.74
2018-01-20T04:32:00.543Z,82.54
2018-01-20T04:34:28.910Z,82.47
2018-01-20T04:36:57.271Z,82.49
2018-01-20T04:39:25.607Z,82.09
2018-01-20T04:41:53.943Z,82.00
2018-01-20T04:44:22.304Z,81.79
2018-01-20T04:46:50.675Z,81.66
2018-01-20T04:49:19.012Z,81.61
2018-01-20T04:51:47.736Z,81.42
2018-01-20T04:54:17.459Z,81.29
2018-01-20T04:56:45.823Z,81.19
2018-01-20T04:59:14.935Z,81.14
2018-01-20T05:01:44.075Z,80.98
2018-01-20T05:04:13.171Z,80.97
2018-01-20T05:06:41.923Z,80.95
2018-01-20T05:09:10.263Z,81.10
2018-01-20T05:11:38.631Z,81.29
2018-01-20T05:14:06.987Z,81.58
2018-01-20T05:16:36.183Z,81.92
2018-01-20T05:19:06.127Z,82.25
2018-01-20T05:21:34.534Z,82.33
2018-01-20T05:24:03.822Z,82.42
2018-01-20T05:26:32.203Z,82.33
2018-01-20T05:29:00.563Z,82.22
2018-01-20T05:31:28.955Z,82.17
2018-01-20T05:33:57.723Z,82.03
2018-01-20T05:36:26.052Z,81.76
2018-01-20T05:38:54.419Z,81.65
2018-01-20T05:41:22.764Z,81.37
2018-01-20T05:43:51.142Z,81.09
2018-01-20T05:46:19.494Z,81.03
2018-01-20T05:48:48.614Z,81.15
2018-01-20T05:51:17.750Z,81.31
2018-01-20T05:53:46.106Z,81.18
2018-01-20T05:56:14.475Z,81.24
2018-01-20T05:58:43.943Z,81.29
2018-01-20T06:01:13.078Z,81.29
2018-01-20T06:03:41.446Z,81.36
2018-01-20T06:06:09.850Z,81.64
2018-01-20T06:08:38.195Z,81.88
2018-01-20T06:11:06.535Z,82.18
2018-01-20T06:13:35.651Z,82.31
2018-01-20T06:16:04.034Z,82.56
2018-01-20T06:18:32.426Z,82.68
2018-01-20T06:21:00.755Z,82.70
2018-01-20T06:23:29.086Z,82.88
2018-01-20T06:25:58.206Z,82.91
2018-01-20T06:28:26.573Z,82.91
2018-01-20T06:30:54.902Z,82.90
2018-01-20T06:33:24.010Z,82.93
2018-01-20T06:35:52.478Z,82.91
2018-01-20T06:38:21.590Z,82.92
2018-01-20T06:40:51.081Z,82.93
2018-01-20T06:43:20.180Z,82.94
2018-01-20T06:45:49.314Z,82.95
2018-01-20T06:48:17.643Z,82.91
2018-01-20T06:50:46.009Z,82.67
2018-01-20T06:53:14.450Z,82.51
2018-01-20T06:55:42.800Z,82.50
2018-01-20T06:58:11.167Z,82.55
2018-01-20T07:00:40.471Z,82.44
2018-01-20T07:03:08.839Z,82.32
2018-01-20T07:05:37.930Z,82.19
2018-01-20T07:08:07.066Z,82.16
2018-01-20T07:10:35.482Z,82.17
2018-01-20T07:13:04.614Z,82.05
2018-01-20T07:15:33.134Z,81.93
2018-01-20T07:18:02.318Z,81.78
2018-01-20T07:20:31.030Z,81.65
2018-01-20T07:23:00.142Z,81.39
2018-01-20T07:25:28.494Z,81.27
2018-01-20T07:27:56.858Z,81.37
2018-01-20T07:30:25.206Z,81.43
2018-01-20T07:32:53.582Z,81.37
2018-01-20T07:35:21.934Z,81.40
2018-01-20T07:37:50.310Z,81.40
2018-01-20T07:40:18.650Z,81.21
2018-01-20T07:42:46.998Z,81.02
2018-01-20T07:45:16.046Z,80.89
2018-01-20T07:47:44.378Z,80.64
2018-01-20T07:50:12.735Z,80.56
2018-01-20T07:52:41.842Z,80.41
2018-01-20T07:55:10.206Z,80.28
2018-01-20T07:57:38.575Z,80.53
2018-01-20T08:00:07.758Z,80.39
2018-01-20T08:02:36.094Z,80.12
2018-01-20T08:05:04.456Z,79.90
2018-01-20T08:07:32.810Z,79.76
2018-01-20T08:10:01.926Z,79.58
2018-01-20T08:12:30.366Z,78.73
2018-01-20T08:14:58.700Z,78.51
2018-01-20T08:17:27.090Z,77.96
2018-01-20T08:19:55.414Z,77.59
2018-01-20T08:22:24.552Z,77.48
2018-01-20T08:24:52.986Z,77.94
2018-01-20T08:27:21.358Z,77.81
2018-01-20T08:29:49.686Z,77.75
2018-01-20T08:32:18.066Z,77.29
2018-01-20T08:34:46.430Z,76.20
2018-01-20T08:37:14.794Z,75.77
2018-01-20T08:39:43.134Z,75.48
2018-01-20T08:42:11.513Z,75.70
2018-01-20T08:44:39.872Z,76.26
2018-01-20T08:47:08.252Z,76.09
2018-01-20T08:49:37.067Z,76.16
2018-01-20T08:52:05.442Z,75.57
2018-01-20T08:54:33.761Z,75.52
2018-01-20T08:57:02.128Z,75.29
2018-01-20T08:59:30.546Z,74.50
2018-01-20T09:01:58.917Z,74.69
2018-01-20T09:04:27.242Z,75.24
2018-01-20T09:06:56.394Z,74.94
2018-01-20T09:09:24.742Z,74.24
2018-01-20T09:11:53.095Z,73.56
2018-01-20T09:14:22.253Z,73.04
2018-01-20T09:16:50.569Z,72.77
2018-01-20T09:19:23.295Z,72.92
2018-01-20T09:21:51.730Z,72.52
2018-01-20T09:24:20.870Z,72.93
2018-01-20T09:26:49.230Z,72.73
2018-01-20T09:29:17.555Z,72.63
2018-01-20T09:31:45.987Z,71.92
2018-01-20T09:34:14.424Z,71.47
2018-01-20T09:36:42.792Z,71.23
2018-01-20T09:39:11.166Z,71.32
2018-01-20T09:41:40.069Z,70.29
2018-01-20T09:44:08.677Z,69.84
2018-01-20T09:46:37.914Z,68.87
2018-01-20T09:49:06.263Z,68.96
2018-01-20T09:51:34.688Z,69.32
2018-01-20T09:54:03.038Z,68.84
2018-01-20T09:56:31.433Z,68.66
2018-01-20T09:59:00.158Z,68.69
2018-01-20T10:01:28.491Z,68.97
2018-01-20T10:03:56.987Z,68.96
2018-01-20T10:06:25.786Z,70.32
2018-01-20T10:09:00.379Z,70.92
2018-01-20T10:11:28.891Z,71.68
2018-01-20T10:13:57.237Z,72.15
2018-01-20T10:16:25.629Z,71.35
2018-01-20T10:18:53.997Z,70.91
2018-01-20T10:21:22.349Z,71.54
2018-01-20T10:23:50.709Z,71.69
2018-01-20T10:26:19.845Z,71.34
2018-01-20T10:28:48.269Z,70.39
2018-01-20T10:31:17.725Z,69.05
2018-01-20T10:33:46.822Z,68.13
2018-01-20T10:36:15.230Z,68.03
2018-01-20T10:38:43.670Z,67.60
2018-01-20T10:41:13.235Z,66.41
2018-01-20T10:43:43.449Z,65.64
2018-01-20T10:46:11.861Z,65.47
2018-01-20T10:48:41.205Z,66.03
2018-01-20T10:51:09.693Z,66.82
2018-01-20T10:53:38.184Z,67.36
2018-01-20T10:56:08.005Z,67.10
2018-01-20T10:58:36.472Z,66.41
2018-01-20T11:01:07.869Z,65.85
2018-01-20T11:03:36.229Z,66.91
2018-01-20T11:06:06.072Z,67.99
2018-01-20T11:08:34.497Z,68.11
2018-01-20T11:11:14.565Z,68.71
2018-01-20T11:13:44.628Z,68.55
2018-01-20T11:16:14.009Z,68.27
2018-01-20T11:18:46.125Z,68.21
2018-01-20T11:21:14.584Z,68.34
2018-01-20T11:23:42.948Z,68.47
2018-01-20T11:26:11.364Z,69.04
2018-01-20T11:28:39.702Z,69.47
2018-01-20T11:31:08.088Z,69.57
2018-01-20T11:33:36.513Z,69.87
2018-01-20T11:36:04.836Z,70.64
2018-01-20T11:38:33.208Z,70.55
2018-01-20T11:41:01.560Z,69.81
2018-01-20T11:43:29.925Z,69.94
2018-01-20T11:45:58.274Z,69.53
2018-01-20T11:48:26.669Z,68.76
2018-01-20T11:50:55.037Z,68.18
2018-01-20T11:53:25.154Z,67.78
2018-01-20T11:55:53.556Z,68.10
2018-01-20T11:58:21.956Z,67.92
2018-01-20T12:00:50.736Z,67.30
2018-01-20T12:03:19.901Z,66.98
2018-01-20T12:05:48.264Z,67.20
2018-01-20T12:08:16.645Z,67.68
2018-01-20T12:10:45.016Z,66.73
2018-01-20T12:13:13.400Z,66.49
2018-01-20T12:15:41.728Z,67.18
2018-01-20T12:18:10.844Z,67.42
2018-01-20T12:20:39.207Z,67.36
2018-01-20T12:23:08.329Z,68.50
2018-01-20T12:25:36.695Z,68.60
2018-01-20T12:28:05.018Z,68.11
2018-01-20T12:30:33.395Z,67.40
2018-01-20T12:33:01.733Z,67.34
2018-01-20T12:35:30.081Z,67.60
2018-01-20T12:37:59.223Z,69.75
2018-01-20T12:40:28.912Z,71.10
2018-01-20T12:42:58.060Z,71.56
2018-01-20T12:45:26.507Z,71.19
2018-01-20T12:47:56.136Z,69.83
2018-01-20T12:50:24.613Z,69.16
2018-01-20T12:52:52.967Z,68.64
2018-01-20T12:55:21.343Z,68.24
2018-01-20T12:57:49.712Z,67.43
2018-01-20T13:00:18.103Z,67.16
2018-01-20T13:02:46.449Z,68.41
2018-01-20T13:05:15.577Z,69.74
2018-01-20T13:07:43.927Z,70.45
2018-01-20T13:10:12.293Z,71.51
2018-01-20T13:12:41.431Z,71.20
2018-01-20T13:15:09.887Z,71.82
2018-01-20T13:17:42.747Z,72.75
2018-01-20T13:20:13.243Z,72.51
2018-01-20T13:22:44.952Z,72.55
2018-01-20T13:25:13.657Z,72.44
2018-01-20T13:27:42.003Z,72.22
2018-01-20T13:30:11.240Z,72.85
2018-01-20T13:32:39.615Z,73.26
2018-01-20T13:35:08.000Z,73.40
2018-01-20T13:37:36.472Z,73.14
2018-01-20T13:40:04.839Z,73.18
2018-01-20T13:42:33.977Z,72.67
2018-01-20T13:45:02.350Z,72.23
2018-01-20T13:47:31.579Z,71.82
2018-01-20T13:50:01.404Z,71.53
2018-01-20T13:52:30.531Z,71.20
2018-01-20T13:54:58.936Z,71.11
2018-01-20T13:57:27.267Z,71.05
2018-01-20T13:59:55.639Z,71.04
2018-01-20T14:02:23.971Z,71.45
2018-01-20T14:04:52.345Z,72.18
2018-01-20T14:07:20.712Z,72.09
2018-01-20T14:09:49.039Z,71.80
2018-01-20T14:12:18.176Z,72.18
2018-01-20T14:14:46.551Z,72.30
2018-01-20T14:17:14.931Z,72.53
2018-01-20T14:19:43.300Z,73.00
2018-01-20T14:22:11.647Z,73.92
2018-01-20T14:24:40.777Z,75.47
2018-01-20T14:27:09.108Z,75.76
2018-01-20T14:29:38.268Z,75.45
2018-01-20T14:32:07.345Z,75.75
2018-01-20T14:34:35.716Z,76.37
2018-01-20T14:37:04.059Z,77.12
2018-01-20T14:39:33.215Z,77.74
2018-01-20T14:42:01.539Z,78.14
2018-01-20T14:44:30.672Z,77.99
2018-01-20T14:46:59.011Z,77.64
2018-01-20T14:49:28.225Z,77.25
2018-01-20T14:51:56.559Z,77.22
2018-01-20T14:54:24.917Z,77.07
2018-01-20T14:56:53.987Z,76.96
2018-01-20T14:59:22.415Z,77.29
2018-01-20T15:01:53.031Z,77.31
2018-01-20T15:04:21.415Z,77.38
2018-01-20T15:06:49.949Z,77.41
2018-01-20T15:09:18.295Z,78.14
2018-01-20T15:11:46.795Z,78.39
2018-01-20T15:14:15.903Z,78.43
2018-01-20T15:16:44.371Z,78.74
2018-01-20T15:19:13.480Z,79.48
2018-01-20T15:21:41.856Z,79.66
2018-01-20T15:24:10.307Z,80.24
2018-01-20T15:26:39.399Z,80.49
2018-01-20T15:29:08.606Z,81.79
2018-01-20T15:31:38.796Z,82.38
2018-01-20T15:34:07.162Z,82.61
2018-01-20T15:36:35.506Z,82.24
2018-01-20T15:39:04.798Z,82.31
2018-01-20T15:41:33.508Z,82.17
2018-01-20T15:44:02.697Z,82.30
2018-01-20T15:46:32.171Z,82.09
2018-01-20T15:49:01.282Z,81.70
2018-01-20T15:51:30.825Z,81.57
2018-01-20T15:53:59.315Z,81.16
2018-01-20T15:56:27.867Z,81.21
2018-01-20T15:58:56.331Z,81.12
2018-01-20T16:01:26.443Z,81.05
2018-01-20T16:03:54.808Z,81.03
2018-01-20T16:06:24.555Z,81.41
2018-01-20T16:08:53.021Z,81.62
2018-01-20T16:11:21.436Z,81.48
2018-01-20T16:13:50.030Z,81.34
2018-01-20T16:16:18.834Z,81.38
2018-01-20T16:18:47.422Z,81.53
2018-01-20T16:21:15.763Z,81.55
2018-01-20T16:23:44.637Z,81.84
2018-01-20T16:26:14.129Z,82.05
2018-01-20T16:28:42.678Z,82.43
2018-01-20T16:31:11.254Z,82.83
2018-01-20T16:33:39.722Z,83.03
2018-01-20T16:36:08.140Z,83.51
2018-01-20T16:38:37.459Z,83.44
2018-01-20T16:41:07.087Z,83.62
2018-01-20T16:43:36.435Z,84.04
2018-01-20T16:46:05.683Z,84.45
2018-01-20T16:48:34.155Z,84.56
2018-01-20T16:51:03.203Z,84.89
2018-01-20T16:53:32.483Z,85.21
2018-01-20T16:56:01.832Z,85.56
2018-01-20T16:58:31.099Z,85.86
2018-01-20T17:01:01.158Z,85.90
2018-01-20T17:03:29.582Z,85.74
2018-01-20T17:05:58.866Z,85.64
2018-01-20T17:08:27.626Z,85.67
2018-01-20T17:10:56.863Z,85.77
2018-01-20T17:13:25.842Z,85.86
2018-01-20T17:15:54.350Z,85.78
2018-01-20T17:18:24.078Z,86.71
2018-01-20T17:20:53.319Z,86.19
2018-01-20T17:23:21.908Z,86.12
2018-01-20T17:25:50.775Z,86.15
2018-01-20T17:28:20.186Z,86.31
2018-01-20T17:30:48.707Z,86.42
2018-01-20T17:33:18.360Z,86.65
2018-01-20T17:35:47.530Z,86.66
2018-01-20T17:38:23.330Z,86.65
2018-01-20T17:40:54.254Z,86.72
2018-01-20T17:43:26.166Z,86.97
2018-01-20T17:45:58.759Z,86.98
2018-01-20T17:48:30.178Z,87.18
2018-01-20T17:51:02.366Z,87.09
2018-01-20T17:53:31.858Z,87.08
2018-01-20T17:56:00.698Z,87.17
2018-01-20T17:58:29.995Z,87.27
2018-01-20T18:01:00.352Z,87.20
2018-01-20T18:03:28.954Z,88.33
2018-01-20T18:05:57.520Z,87.75
2018-01-20T18:08:26.070Z,87.91
2018-01-20T18:10:54.694Z,87.83
2018-01-20T18:13:23.242Z,87.96
2018-01-20T18:15:51.650Z,88.04
2018-01-20T18:18:20.518Z,88.02
2018-01-20T18:20:49.162Z,88.28
2018-01-20T18:23:18.555Z,88.41
2018-01-20T18:25:50.910Z,88.47
2018-01-20T18:28:20.697Z,88.51
2018-01-20T18:30:49.325Z,88.71
2018-01-20T18:33:17.988Z,88.72
2018-01-20T18:35:46.354Z,88.74
2018-01-20T18:38:14.749Z,88.85
2018-01-20T18:40:43.188Z,88.80
2018-01-20T18:43:11.577Z,88.74
2018-01-20T18:45:40.034Z,88.83
2018-01-20T18:48:09.297Z,89.06
2018-01-20T18:50:37.879Z,89.00
2018-01-20T18:53:06.441Z,89.10
2018-01-20T18:55:34.795Z,89.06
2018-01-20T18:58:03.960Z,89.02
2018-01-20T19:00:33.169Z,89.09
2018-01-20T19:03:01.849Z,89.13
2018-01-20T19:05:31.033Z,89.02
2018-01-20T19:08:00.189Z,89.11
2018-01-20T19:10:28.673Z,89.08
2018-01-20T19:12:58.684Z,89.15
2018-01-20T19:15:27.232Z,89.13
2018-01-20T19:17:55.718Z,89.19
2018-01-20T19:20:26.846Z,89.25
2018-01-20T19:22:56.346Z,89.25
2018-01-20T19:25:25.784Z,89.20
2018-01-20T19:27:55.753Z,89.18
2018-01-20T19:30:25.285Z,89.17
2018-01-20T19:32:53.844Z,89.11
2018-01-20T19:35:22.237Z,89.06
2018-01-20T19:37:50.656Z,89.10
2018-01-20T19:40:19.080Z,89.02
2018-01-20T19:42:48.321Z,89.00
2018-01-20T19:45:16.784Z,89.00
2018-01-20T19:47:45.224Z,89.09
2018-01-20T19:50:13.657Z,89.07
2018-01-20T19:52:42.096Z,89.03
2018-01-20T19:55:11.288Z,89.01
2018-01-20T19:57:42.464Z,89.13
2018-01-20T20:00:11.695Z,89.22
2018-01-20T20:02:40.880Z,89.17
2018-01-20T20:05:09.380Z,89.23
2018-01-20T20:07:40.537Z,89.20
2018-01-20T20:10:10.032Z,89.20
2018-01-20T20:12:38.634Z,89.20
2018-01-20T20:15:13.070Z,89.21
2018-01-20T20:17:41.560Z,89.32
2018-01-20T20:20:09.960Z,89.69
2018-01-20T20:22:52.550Z,89.59
2018-01-20T20:25:21.545Z,89.89
2018-01-20T20:27:50.608Z,89.97
2018-01-20T20:30:18.976Z,90.18
2018-01-20T20:32:48.021Z,90.08
2018-01-20T20:35:16.364Z,90.00
2018-01-20T20:37:44.852Z,90.05
2018-01-20T20:40:14.545Z,90.27
2018-01-20T20:42:43.213Z,90.37
2018-01-20T20:45:13.672Z,90.40
2018-01-20T20:47:43.736Z,90.44
2018-01-20T20:50:12.184Z,90.46
2018-01-20T20:52:41.336Z,90.56
2018-01-20T20:55:10.144Z,90.49
2018-01-20T20:57:39.424Z,90.57
2018-01-20T21:00:09.181Z,90.57
2018-01-20T21:02:37.560Z,90.57
2018-01-20T21:05:07.200Z,90.61
2018-01-20T21:07:35.536Z,90.59
2018-01-20T21:10:04.470Z,90.67
2018-01-20T21:12:33.968Z,90.60
2018-01-20T21:15:02.347Z,90.74
2018-01-20T21:17:30.693Z,90.79
2018-01-20T21:19:59.205Z,90.72
2018-01-20T21:22:27.600Z,90.87
2018-01-20T21:24:57.491Z,90.88
2018-01-20T21:27:26.621Z,90.87
2018-01-20T21:29:54.972Z,90.80
2018-01-20T21:32:26.416Z,90.79
2018-01-20T21:34:59.060Z,90.76
2018-01-20T21:37:27.728Z,90.79
2018-01-20T21:39:56.979Z,90.90
2018-01-20T21:42:26.126Z,90.83
2018-01-20T21:44:55.754Z,90.75
2018-01-20T21:47:24.915Z,90.79
2018-01-20T21:49:53.952Z,90.87
2018-01-20T21:52:22.287Z,90.87
2018-01-20T21:54:51.258Z,90.88
2018-01-20T21:57:19.592Z,90.83
2018-01-20T21:59:48.737Z,90.83
2018-01-20T22:02:17.728Z,90.82
2018-01-20T22:04:46.108Z,90.85
2018-01-20T22:07:14.549Z,90.81
2018-01-20T22:09:44.412Z,90.87
2018-01-20T22:12:12.783Z,90.85
2018-01-20T22:14:41.163Z,90.79
2018-01-20T22:17:09.519Z,91.23
2018-01-20T22:19:37.900Z,90.98
2018-01-20T22:22:06.520Z,90.67
2018-01-20T22:24:34.915Z,90.79
2018-01-20T22:27:04.015Z,90.77
2018-01-20T22:29:33.156Z,90.75
2018-01-20T22:32:01.523Z,90.85
2018-01-20T22:34:29.899Z,90.94
2018-01-20T22:36:58.279Z,90.83
2018-01-20T22:39:26.688Z,90.87
2018-01-20T22:41:55.031Z,90.80
2018-01-20T22:44:24.195Z,90.90
2018-01-20T22:46:52.593Z,90.86
2018-01-20T22:49:20.979Z,90.86
2018-01-20T22:51:49.322Z,90.92
2018-01-20T22:54:17.667Z,90.83
2018-01-20T22:56:46.239Z,90.82
2018-01-20T22:59:14.599Z,90.87
2018-01-20T23:01:42.991Z,90.89
2018-01-20T23:04:11.323Z,91.07
2018-01-20T23:06:40.447Z,91.16
2018-01-20T23:09:08.821Z,91.18
2018-01-20T23:11:37.215Z,91.07
2018-01-20T23:14:05.550Z,91.07
2018-01-20T23:16:33.935Z,91.20
2018-01-20T23:19:02.299Z,91.06
2018-01-20T23:21:30.652Z,91.04
2018-01-20T23:23:59.031Z,90.98
2018-01-20T23:26:27.414Z,90.97
2018-01-20T23:28:55.775Z,90.82
2018-01-20T23:31:24.112Z,90.90
2018-01-20T23:33:52.467Z,90.93
2018-01-20T23:36:20.790Z,90.97
2018-01-20T23:38:49.947Z,91.01
2018-01-20T23:41:18.275Z,90.98
2018-01-20T23:43:46.616Z,90.82
2018-01-20T23:46:14.990Z,90.81
2018-01-20T23:48:44.129Z,90.78
2018-01-20T23:51:12.467Z,90.83
2018-01-20T23:53:41.598Z,90.73
2018-01-20T23:56:09.924Z,90.46
2018-01-20T23:58:39.051Z,90.52
